createdAt,value
2024-02-09T00:00:22.866Z,98480.83
2024-02-09T00:02:55.268Z,98478.98
2024-02-09T00:05:30.783Z,98479.81
2024-02-09T00:08:03.813Z,98472.45
2024-02-09T00:10:38.360Z,98468.05
2024-02-09T00:13:12.935Z,98469.95
2024-02-09T00:15:50.036Z,98466.63
2024-02-09T00:18:23.998Z,98463.13
2024-02-09T00:20:58.339Z,98458.88
2024-02-09T00:23:30.633Z,98463.30
2024-02-09T00:26:03.766Z,98463.92
2024-02-09T00:28:36.247Z,98477.29
2024-02-09T00:31:08.921Z,98464.55
2024-02-09T00:33:42.447Z,98467.88
2024-02-09T00:36:15.163Z,98467.84
2024-02-09T00:38:48.965Z,98474.70
2024-02-09T00:41:39.274Z,98465.62
2024-02-09T00:44:12.192Z,98461.25
2024-02-09T00:46:44.820Z,98466.24
2024-02-09T00:49:35.438Z,98472.42
2024-02-09T00:52:08.111Z,98478.68
2024-02-09T00:54:40.311Z,98471.02
2024-02-09T00:57:12.210Z,98470.41
2024-02-09T00:59:45.135Z,98474.59
2024-02-09T01:02:19.135Z,98461.87
2024-02-09T01:04:52.549Z,98470.43
2024-02-09T01:07:24.945Z,98472.09
2024-02-09T01:09:59.348Z,98468.67
2024-02-09T01:12:51.185Z,98466.18
2024-02-09T01:15:41.942Z,98470.28
2024-02-09T01:18:32.473Z,98476.22
2024-02-09T01:21:40.111Z,98467.88
2024-02-09T01:24:30.051Z,98471.81
2024-02-09T01:27:21.731Z,98469.35
2024-02-09T01:30:11.759Z,98469.41
2024-02-09T01:33:01.412Z,98471.05
2024-02-09T01:35:51.553Z,98463.47
2024-02-09T01:38:42.766Z,98463.41
2024-02-09T01:41:32.691Z,98475.17
2024-02-09T01:44:22.883Z,98470.34
2024-02-09T01:47:13.809Z,98471.94
2024-02-09T01:50:04.200Z,98468.52
2024-02-09T01:52:55.034Z,98471.75
2024-02-09T01:55:46.014Z,98467.56
2024-02-09T01:58:37.442Z,98469.98
2024-02-09T02:01:28.684Z,98467.47
2024-02-09T02:04:19.245Z,98472.45
2024-02-09T02:07:09.488Z,98464.42
2024-02-09T02:09:59.251Z,98465.23
2024-02-09T02:12:50.513Z,98471.94
2024-02-09T02:15:40.924Z,98472.73
2024-02-09T02:18:31.231Z,98469.41
2024-02-09T02:21:21.475Z,98480.67
2024-02-09T02:24:14.523Z,98462.89
2024-02-09T02:27:04.308Z,98466.95
2024-02-09T02:29:54.162Z,98484.39
2024-02-09T02:32:44.289Z,98479.35
2024-02-09T02:35:34.282Z,98490.14
2024-02-09T02:38:24.646Z,98496.88
2024-02-09T02:41:15.488Z,98500.17
2024-02-09T02:43:47.665Z,98507.50
2024-02-09T02:46:20.658Z,98500.23
2024-02-09T02:49:11.047Z,98503.69
2024-02-09T02:52:01.500Z,98502.03
2024-02-09T02:54:51.378Z,98496.05
2024-02-09T02:57:41.491Z,98507.08
2024-02-09T03:00:49.853Z,98508.16
2024-02-09T03:03:39.738Z,98501.27
2024-02-09T03:06:12.564Z,98497.78
2024-02-09T03:08:48.281Z,98499.47
2024-02-09T03:11:19.291Z,98499.70
2024-02-09T03:13:52.094Z,98495.12
2024-02-09T03:16:24.596Z,98495.25
2024-02-09T03:18:57.673Z,98488.48
2024-02-09T03:21:31.829Z,98488.70
2024-02-09T03:24:05.185Z,98492.64
2024-02-09T03:26:37.905Z,98486.73
2024-02-09T03:29:11.070Z,98496.58
2024-02-09T03:31:43.611Z,98497.45
2024-02-09T03:34:15.967Z,98504.22
2024-02-09T03:36:48.941Z,98502.66
2024-02-09T03:39:40.042Z,98504.91
2024-02-09T03:42:12.524Z,98503.11
2024-02-09T03:44:46.103Z,98505.50
2024-02-09T03:47:24.333Z,98496.20
2024-02-09T03:49:59.534Z,98503.62
2024-02-09T03:52:34.590Z,98497.75
2024-02-09T03:55:08.979Z,98504.42
2024-02-09T03:57:42.290Z,98500.45
2024-02-09T04:00:18.101Z,98501.21
2024-02-09T04:02:51.114Z,98507.91
2024-02-09T04:05:24.508Z,98511.47
2024-02-09T04:07:58.976Z,98506.53
2024-02-09T04:10:42.459Z,98511.89
2024-02-09T04:13:09.475Z,98512.61
2024-02-09T04:15:42.873Z,98524.22
2024-02-09T04:18:17.674Z,98524.26
2024-02-09T04:20:51.156Z,98526.61
2024-02-09T04:23:24.282Z,98538.24
2024-02-09T04:25:58.680Z,98531.72
2024-02-09T04:28:33.153Z,98527.47
2024-02-09T04:31:07.523Z,98529.99
2024-02-09T04:33:41.096Z,98536.84
2024-02-09T04:36:15.216Z,98534.59
2024-02-09T04:38:48.308Z,98530.31
2024-02-09T04:41:21.339Z,98536.05
2024-02-09T04:43:53.964Z,98526.67
2024-02-09T04:46:28.043Z,98536.00
2024-02-09T04:49:04.862Z,98540.30
2024-02-09T04:51:47.687Z,98538.95
2024-02-09T04:54:19.302Z,98537.28
2024-02-09T04:56:53.239Z,98538.22
2024-02-09T04:59:28.643Z,98543.92
2024-02-09T05:02:01.862Z,98536.32
2024-02-09T05:04:34.569Z,98532.20
2024-02-09T05:07:10.252Z,98535.63
2024-02-09T05:09:43.823Z,98542.50
2024-02-09T05:12:16.046Z,98543.99
2024-02-09T05:14:51.369Z,98543.27
2024-02-09T05:17:25.540Z,98547.34
2024-02-09T05:20:01.975Z,98534.77
2024-02-09T05:22:35.137Z,98543.99
2024-02-09T05:25:09.061Z,98537.25
2024-02-09T05:27:41.206Z,98543.40
2024-02-09T05:30:32.533Z,98553.63
2024-02-09T05:33:05.817Z,98552.70
2024-02-09T05:35:40.389Z,98555.48
2024-02-09T05:38:14.408Z,98549.51
2024-02-09T05:40:48.320Z,98563.92
2024-02-09T05:43:21.319Z,98553.89
2024-02-09T05:45:54.868Z,98562.55
2024-02-09T05:48:28.197Z,98570.50
2024-02-09T05:51:02.861Z,98574.09
2024-02-09T05:53:34.858Z,98583.97
2024-02-09T05:56:08.089Z,98586.39
2024-02-09T05:58:41.817Z,98583.25
2024-02-09T06:01:15.677Z,98590.15
2024-02-09T06:03:48.366Z,98587.93
2024-02-09T06:06:22.912Z,98594.46
2024-02-09T06:08:57.581Z,98588.88
2024-02-09T06:11:31.349Z,98596.51
2024-02-09T06:14:05.244Z,98589.78
2024-02-09T06:16:38.306Z,98589.73
2024-02-09T06:19:11.534Z,98593.84
2024-02-09T06:21:44.489Z,98591.97
2024-02-09T06:24:20.926Z,98585.98
2024-02-09T06:26:54.130Z,98593.67
2024-02-09T06:29:29.689Z,98599.47
2024-02-09T06:32:04.750Z,98599.43
2024-02-09T06:34:37.964Z,98595.85
2024-02-09T06:37:12.151Z,98591.47
2024-02-09T06:39:44.020Z,98595.59
2024-02-09T06:42:16.126Z,98595.62
2024-02-09T06:44:49.264Z,98592.89
2024-02-09T06:47:24.694Z,98589.67
2024-02-09T06:49:57.639Z,98583.62
2024-02-09T06:52:33.746Z,98581.97
2024-02-09T06:55:09.938Z,98578.59
2024-02-09T06:57:46.681Z,98580.31
2024-02-09T07:00:20.573Z,98574.56
2024-02-09T07:02:53.287Z,98583.05
2024-02-09T07:05:25.908Z,98585.66
2024-02-09T07:07:58.680Z,98574.77
2024-02-09T07:10:31.721Z,98579.94
2024-02-09T07:13:04.309Z,98584.16
2024-02-09T07:15:36.335Z,98586.77
2024-02-09T07:18:08.959Z,98593.58
2024-02-09T07:20:43.972Z,98578.47
2024-02-09T07:23:16.779Z,98577.60
2024-02-09T07:26:11.758Z,98564.97
2024-02-09T07:28:44.804Z,98568.42
2024-02-09T07:31:18.399Z,98575.31
2024-02-09T07:33:51.978Z,98574.59
2024-02-09T07:36:26.766Z,98570.61
2024-02-09T07:38:59.613Z,98567.41
2024-02-09T07:41:33.024Z,98564.93
2024-02-09T07:44:06.430Z,98567.50
2024-02-09T07:46:39.873Z,98564.12
2024-02-09T07:49:12.866Z,98568.39
2024-02-09T07:51:45.521Z,98563.34
2024-02-09T07:54:20.011Z,98568.50
2024-02-09T07:56:53.532Z,98561.66
2024-02-09T07:59:27.208Z,98560.74
2024-02-09T08:01:59.988Z,98558.16
2024-02-09T08:04:33.563Z,98570.08
2024-02-09T08:07:08.076Z,98556.56
2024-02-09T08:09:40.631Z,98578.67
2024-02-09T08:12:15.829Z,98580.38
2024-02-09T08:14:50.468Z,98582.91
2024-02-09T08:17:22.947Z,98581.20
2024-02-09T08:19:58.038Z,98582.93
2024-02-09T08:22:32.429Z,98587.17
2024-02-09T08:25:05.433Z,98592.24
2024-02-09T08:27:39.930Z,98585.47
2024-02-09T08:30:13.664Z,98588.00
2024-02-09T08:32:46.270Z,98593.09
2024-02-09T08:35:21.389Z,98601.57
2024-02-09T08:37:54.212Z,98611.78
2024-02-09T08:40:29.918Z,98612.61
2024-02-09T08:43:03.188Z,98592.27
2024-02-09T08:45:37.672Z,98598.18
2024-02-09T08:48:11.004Z,98608.37
2024-02-09T08:50:45.450Z,98597.35
2024-02-09T08:53:36.042Z,98587.16
2024-02-09T08:56:10.246Z,98593.96
2024-02-09T08:58:43.370Z,98593.11
2024-02-09T09:01:16.566Z,98593.11
2024-02-09T09:03:49.794Z,98597.33
2024-02-09T09:06:24.155Z,98588.01
2024-02-09T09:08:57.374Z,98593.11
2024-02-09T09:11:29.430Z,98588.02
2024-02-09T09:14:26.641Z,98584.63
2024-02-09T09:17:12.065Z,98576.98
2024-02-09T09:19:35.929Z,98580.37
2024-02-09T09:22:10.668Z,98586.31
2024-02-09T09:24:43.576Z,98585.44
2024-02-09T09:27:37.566Z,98593.05
2024-02-09T09:30:11.587Z,98582.02
2024-02-09T09:32:44.962Z,98590.49
2024-02-09T09:35:17.960Z,98587.95
2024-02-09T09:37:51.144Z,98592.18
2024-02-09T09:40:26.488Z,98575.17
2024-02-09T09:42:59.165Z,98570.03
2024-02-09T09:45:32.307Z,98575.09
2024-02-09T09:48:09.412Z,98569.99
2024-02-09T09:50:43.753Z,98574.19
2024-02-09T09:53:17.191Z,98571.63
2024-02-09T09:55:51.076Z,98563.94
2024-02-09T09:58:27.484Z,98567.34
2024-02-09T10:01:23.063Z,98573.20
2024-02-09T10:03:57.195Z,98570.58
2024-02-09T10:06:30.568Z,98580.67
2024-02-09T10:09:05.785Z,98574.74
2024-02-09T10:11:43.090Z,98583.22
2024-02-09T10:14:17.834Z,98580.66
2024-02-09T10:16:52.090Z,98571.25
2024-02-09T10:19:25.750Z,98579.78
2024-02-09T10:22:00.918Z,98586.62
2024-02-09T10:24:35.251Z,98576.34
2024-02-09T10:27:10.747Z,98579.72
2024-02-09T10:29:45.211Z,98580.53
2024-02-09T10:32:18.919Z,98577.94
2024-02-09T10:34:53.797Z,98583.92
2024-02-09T10:37:31.690Z,98586.41
2024-02-09T10:40:02.846Z,98585.59
2024-02-09T10:42:55.026Z,98599.17
2024-02-09T10:45:29.870Z,98587.19
2024-02-09T10:48:05.174Z,98592.31
2024-02-09T10:50:39.254Z,98580.34
2024-02-09T10:53:14.196Z,98580.31
2024-02-09T10:55:47.845Z,98573.41
2024-02-09T10:58:21.816Z,98587.01
2024-02-09T11:00:55.679Z,98577.64
2024-02-09T11:03:29.550Z,98584.34
2024-02-09T11:06:06.362Z,98587.74
2024-02-09T11:08:40.468Z,98588.47
2024-02-09T11:11:15.709Z,98585.75
2024-02-09T11:13:48.558Z,98600.89
2024-02-09T11:16:25.689Z,98583.77
2024-02-09T11:18:58.622Z,98582.83
2024-02-09T11:21:33.637Z,98581.07
2024-02-09T11:24:07.455Z,98574.92
2024-02-09T11:27:01.938Z,98582.41
2024-02-09T11:29:37.180Z,98579.75
2024-02-09T11:32:10.385Z,98592.38
2024-02-09T11:34:48.547Z,98585.48
2024-02-09T11:37:22.663Z,98590.51
2024-02-09T11:43:06.221Z,98602.47
2024-02-09T11:45:39.339Z,98594.77
2024-02-09T11:48:14.007Z,98593.91
2024-02-09T11:50:48.225Z,98598.20
2024-02-09T11:53:21.983Z,98588.86
2024-02-09T11:55:55.261Z,98591.31
2024-02-09T11:58:28.329Z,98591.09
2024-02-09T12:01:01.204Z,98608.91
2024-02-09T12:06:24.541Z,98597.72
2024-02-09T12:08:59.252Z,98600.16
2024-02-09T12:11:33.769Z,98611.13
2024-02-09T12:14:07.677Z,98609.49
2024-02-09T12:16:40.316Z,98600.98
2024-02-09T12:19:15.364Z,98607.23
2024-02-09T12:21:49.184Z,98603.33
2024-02-09T12:24:21.987Z,98605.16
2024-02-09T12:26:55.897Z,98605.16
2024-02-09T12:29:30.224Z,98614.77
2024-02-09T12:32:05.562Z,98614.63
2024-02-09T12:34:46.997Z,98622.63
2024-02-09T12:37:21.494Z,98621.84
2024-02-09T12:39:59.563Z,98622.70
2024-02-09T12:42:34.928Z,98624.19
2024-02-09T12:45:08.329Z,98623.46
2024-02-09T12:47:43.143Z,98624.52
2024-02-09T12:50:18.548Z,98630.58
2024-02-09T12:52:52.287Z,98626.41
2024-02-09T12:55:26.977Z,98625.64
2024-02-09T12:57:59.183Z,98637.59
2024-02-09T13:00:35.109Z,98642.61
2024-02-09T13:03:08.924Z,98647.00
2024-02-09T13:05:42.844Z,98647.89
2024-02-09T13:08:16.343Z,98642.13
2024-02-09T13:10:50.091Z,98634.55
2024-02-09T13:13:24.177Z,98643.17
2024-02-09T13:16:14.844Z,98649.19
2024-02-09T13:18:48.607Z,98645.94
2024-02-09T13:21:24.634Z,98650.25
2024-02-09T13:24:00.164Z,98655.41
2024-02-09T13:26:34.519Z,98659.66
2024-02-09T13:29:07.694Z,98650.27
2024-02-09T13:31:58.351Z,98653.70
2024-02-09T13:34:32.064Z,98649.31
2024-02-09T13:37:05.855Z,98665.52
2024-02-09T13:39:37.842Z,98652.87
2024-02-09T13:42:11.245Z,98674.19
2024-02-09T13:44:44.357Z,98672.61
2024-02-09T13:47:18.830Z,98677.72
2024-02-09T13:49:51.506Z,98682.87
2024-02-09T13:52:24.731Z,98680.33
2024-02-09T13:55:00.688Z,98678.67
2024-02-09T13:57:34.969Z,98674.43
2024-02-09T14:00:09.290Z,98674.47
2024-02-09T14:02:42.474Z,98686.40
2024-02-09T14:05:18.664Z,98688.09
2024-02-09T14:07:53.399Z,98682.98
2024-02-09T14:10:27.637Z,98684.67
2024-02-09T14:13:01.453Z,98692.36
2024-02-09T14:15:36.095Z,98699.17
2024-02-09T14:18:11.917Z,98694.91
2024-02-09T14:20:47.141Z,98700.01
2024-02-09T14:23:20.375Z,98699.17
2024-02-09T14:25:54.295Z,98695.73
2024-02-09T14:28:27.896Z,98704.25
2024-02-09T14:31:02.512Z,98703.41
2024-02-09T14:33:36.361Z,98709.36
2024-02-09T14:36:11.861Z,98704.29
2024-02-09T14:41:36.786Z,98710.23
2024-02-09T14:44:28.814Z,98719.59
2024-02-09T14:47:04.343Z,98706.84
2024-02-09T14:49:37.810Z,98719.61
2024-02-09T14:52:11.128Z,98733.18
2024-02-09T14:55:02.702Z,98728.95
2024-02-09T14:57:37.458Z,98738.30
2024-02-09T15:00:29.405Z,98728.09
2024-02-09T15:03:09.727Z,98735.73
2024-02-09T15:05:44.295Z,98737.44
2024-02-09T15:08:19.305Z,98730.64
2024-02-09T15:10:52.253Z,98744.23
2024-02-09T15:13:27.271Z,98746.79
2024-02-09T15:16:01.081Z,98750.17
2024-02-09T15:18:34.626Z,98754.39
2024-02-09T15:21:09.067Z,98752.66
2024-02-09T15:24:01.553Z,98764.55
2024-02-09T15:26:36.988Z,98756.09
2024-02-09T15:29:10.295Z,98766.27
2024-02-09T15:31:44.037Z,98769.72
2024-02-09T15:34:19.143Z,98774.82
2024-02-09T15:36:53.282Z,98786.69
2024-02-09T15:39:30.977Z,98771.40
2024-02-09T15:42:05.321Z,98780.73
2024-02-09T15:44:40.655Z,98773.92
2024-02-09T15:47:14.884Z,98784.95
2024-02-09T15:49:48.326Z,98784.97
2024-02-09T15:52:26.118Z,98773.09
2024-02-09T15:55:00.459Z,98777.32
2024-02-09T15:57:34.655Z,98779.88
2024-02-09T16:00:25.105Z,98785.83
2024-02-09T16:03:00.015Z,98783.28
2024-02-09T16:05:33.112Z,98782.44
2024-02-09T16:08:07.495Z,98788.38
2024-02-09T16:10:47.307Z,98792.66
2024-02-09T16:13:21.937Z,98797.71
2024-02-09T16:15:55.453Z,98801.91
2024-02-09T16:18:29.667Z,98805.27
2024-02-09T16:21:03.087Z,98812.05
2024-02-09T16:23:36.169Z,98814.55
2024-02-09T16:26:08.877Z,98823.00
2024-02-09T16:28:42.281Z,98812.05
2024-02-09T16:31:16.249Z,98827.33
2024-02-09T16:33:51.173Z,98827.34
2024-02-09T16:36:26.123Z,98826.41
2024-02-09T16:38:59.291Z,98836.61
2024-02-09T16:41:32.245Z,98832.34
2024-02-09T16:44:06.656Z,98835.70
2024-02-09T16:46:40.844Z,98839.08
2024-02-09T16:49:15.791Z,98840.73
2024-02-09T16:51:48.517Z,98837.40
2024-02-09T16:54:21.687Z,98849.27
2024-02-09T16:56:54.201Z,98856.92
2024-02-09T16:59:26.368Z,98849.31
2024-02-09T17:01:58.299Z,98865.48
2024-02-09T17:04:29.975Z,98860.44
2024-02-09T17:07:01.496Z,98866.42
2024-02-09T17:09:32.876Z,98854.56
2024-02-09T17:12:04.616Z,98861.33
2024-02-09T17:14:36.531Z,98851.98
2024-02-09T17:17:08.805Z,98860.41
2024-02-09T17:19:40.509Z,98862.17
2024-02-09T17:22:12.104Z,98871.45
2024-02-09T17:24:43.630Z,98881.61
2024-02-09T17:27:15.986Z,98866.28
2024-02-09T17:29:47.383Z,98889.18
2024-02-09T17:32:19.202Z,98877.27
2024-02-09T17:34:51.721Z,98882.38
2024-02-09T17:37:23.309Z,98883.27
2024-02-09T17:39:55.923Z,98876.48
2024-02-09T17:42:28.292Z,98887.44
2024-02-09T17:44:59.644Z,98890.84
2024-02-09T17:47:31.486Z,98892.51
2024-02-09T17:50:04.027Z,98905.23
2024-02-09T17:52:35.576Z,98901.00
2024-02-09T17:55:07.953Z,98898.41
2024-02-09T17:57:39.798Z,98895.81
2024-02-09T18:00:11.420Z,98891.56
2024-02-09T18:02:44.394Z,98893.34
2024-02-09T18:05:16.866Z,98894.95
2024-02-09T18:07:48.425Z,98897.55
2024-02-09T18:10:20.178Z,98899.19
2024-02-09T18:12:52.218Z,98904.23
2024-02-09T18:15:25.858Z,98910.16
2024-02-09T18:17:57.539Z,98910.30
2024-02-09T18:20:29.592Z,98907.70
2024-02-09T18:23:01.070Z,98919.59
2024-02-09T18:25:50.526Z,98926.37
2024-02-09T18:28:23.358Z,98935.61
2024-02-09T18:30:57.002Z,98939.84
2024-02-09T18:33:29.750Z,98942.44
2024-02-09T18:36:02.694Z,98945.80
2024-02-09T18:38:34.603Z,98950.86
2024-02-09T18:41:05.886Z,98950.00
2024-02-09T18:43:38.052Z,98955.94
2024-02-09T18:46:10.999Z,98959.19
2024-02-09T18:48:42.611Z,98966.95
2024-02-09T18:51:14.855Z,98965.13
2024-02-09T18:53:46.120Z,98979.53
2024-02-09T18:56:17.984Z,98975.23
2024-02-09T18:58:49.422Z,98970.91
2024-02-09T19:01:22.788Z,98970.83
2024-02-09T19:03:55.044Z,98972.58
2024-02-09T19:06:27.860Z,98974.23
2024-02-09T19:08:59.990Z,98974.36
2024-02-09T19:11:32.487Z,98972.47
2024-02-09T19:14:05.424Z,98973.36
2024-02-09T19:16:40.139Z,98970.83
2024-02-09T19:19:12.735Z,98974.25
2024-02-09T19:21:44.488Z,98979.20
2024-02-09T19:24:16.119Z,98979.13
2024-02-09T19:26:48.610Z,98979.09
2024-02-09T19:29:20.937Z,98983.25
2024-02-09T19:31:54.099Z,98989.30
2024-02-09T19:34:27.157Z,98993.42
2024-02-09T19:36:58.422Z,98989.09
2024-02-09T19:39:31.190Z,98993.30
2024-02-09T19:42:03.012Z,98999.97
2024-02-09T19:44:34.401Z,99011.72
2024-02-09T19:47:07.340Z,99007.42
2024-02-09T19:49:38.718Z,99015.84
2024-02-09T19:52:11.474Z,99018.39
2024-02-09T19:54:43.158Z,99020.13
2024-02-09T19:57:14.584Z,99027.73
2024-02-09T19:59:47.811Z,99027.90
2024-02-09T20:02:27.913Z,99032.02
2024-02-09T20:04:54.738Z,99031.24
2024-02-09T20:07:28.221Z,99031.13
2024-02-09T20:09:59.857Z,99039.55
2024-02-09T20:12:32.990Z,99045.44
2024-02-09T20:15:04.150Z,99048.80
2024-02-09T20:17:36.362Z,99056.34
2024-02-09T20:20:10.434Z,99061.37
2024-02-09T20:22:41.871Z,99062.08
2024-02-09T20:25:15.255Z,99067.94
2024-02-09T20:27:49.463Z,99064.69
2024-02-09T20:30:20.764Z,99069.83
2024-02-09T20:32:53.569Z,99064.59
2024-02-09T20:35:26.100Z,99064.56
2024-02-09T20:37:57.833Z,99068.72
2024-02-09T20:40:29.624Z,99068.93
2024-02-09T20:43:01.858Z,99076.47
2024-02-09T20:45:35.146Z,99079.00
2024-02-09T20:48:10.037Z,99085.78
2024-02-09T20:50:43.228Z,99082.28
2024-02-09T20:53:16.247Z,99094.16
2024-02-09T20:55:47.516Z,99098.98
2024-02-09T20:58:20.528Z,99106.48
2024-02-09T21:00:52.583Z,99094.58
2024-02-09T21:03:24.299Z,99111.56
2024-02-09T21:05:56.191Z,99116.58
2024-02-09T21:08:28.222Z,99123.30
2024-02-09T21:10:59.723Z,99129.08
2024-02-09T21:13:31.693Z,99132.48
2024-02-09T21:16:03.284Z,99129.05
2024-02-09T21:18:36.341Z,99136.73
2024-02-09T21:21:08.698Z,99138.24
2024-02-09T21:23:41.815Z,99142.45
2024-02-09T21:26:14.503Z,99150.06
2024-02-09T21:28:46.228Z,99151.82
2024-02-09T21:31:19.417Z,99159.37
2024-02-09T21:33:51.289Z,99166.20
2024-02-09T21:36:23.845Z,99172.95
2024-02-09T21:38:56.139Z,99182.12
2024-02-09T21:41:27.301Z,99193.98
2024-02-09T21:43:59.243Z,99198.11
2024-02-09T21:46:31.017Z,99206.83
2024-02-09T21:49:03.929Z,99214.16
2024-02-09T21:51:35.320Z,99211.53
2024-02-09T21:54:08.048Z,99216.59
2024-02-09T21:56:39.584Z,99212.36
2024-02-09T21:59:13.891Z,99208.13
2024-02-09T22:01:45.203Z,99221.70
2024-02-09T22:04:17.454Z,99222.58
2024-02-09T22:06:48.524Z,99211.56
2024-02-09T22:09:20.930Z,99213.12
2024-02-09T22:11:55.054Z,99219.00
2024-02-09T22:14:27.139Z,99221.56
2024-02-09T22:16:59.033Z,99227.30
2024-02-09T22:19:30.586Z,99227.26
2024-02-09T22:22:03.201Z,99233.41
2024-02-09T22:24:35.365Z,99238.45
2024-02-09T22:27:07.618Z,99231.60
2024-02-09T22:29:39.235Z,99238.23
2024-02-09T22:32:11.089Z,99234.83
2024-02-09T22:34:44.967Z,99243.27
2024-02-09T22:37:16.381Z,99248.30
2024-02-09T22:39:47.656Z,99244.06
2024-02-09T22:42:19.552Z,99247.36
2024-02-09T22:44:51.070Z,99238.87
2024-02-09T22:47:24.108Z,99234.57
2024-02-09T22:49:55.146Z,99236.23
2024-02-09T22:52:27.347Z,99237.97
2024-02-09T22:55:00.308Z,99242.17
2024-02-09T22:57:31.769Z,99246.37
2024-02-09T23:00:05.505Z,99247.09
2024-02-09T23:02:37.700Z,99242.83
2024-02-09T23:05:09.220Z,99251.18
2024-02-09T23:07:41.220Z,99249.52
2024-02-09T23:10:12.983Z,99249.36
2024-02-09T23:12:45.589Z,99259.42
2024-02-09T23:15:20.923Z,99261.84
2024-02-09T23:17:52.534Z,99256.72
2024-02-09T23:20:25.423Z,99251.74
2024-02-09T23:22:57.138Z,99260.25
2024-02-09T23:25:28.568Z,99261.83
2024-02-09T23:28:00.103Z,99255.86
2024-02-09T23:30:32.229Z,99265.91
2024-02-09T23:33:03.771Z,99265.08
2024-02-09T23:35:35.381Z,99275.38
2024-02-09T23:38:06.802Z,99284.72
2024-02-09T23:40:38.779Z,99282.97
2024-02-09T23:43:11.255Z,99289.78
2024-02-09T23:45:43.135Z,99293.06
2024-02-09T23:48:14.967Z,99301.49
2024-02-09T23:50:48.953Z,99294.52
2024-02-09T23:53:21.069Z,99294.40
2024-02-09T23:55:54.382Z,99305.27
2024-02-09T23:58:27.671Z,99298.34
